KPPO

La Porte Municipal Airport

La Porte, Indiana, USA
METAR KPPO 181535Z AUTO 19004KT 10SM CLR 09/02 A3053 RMK AO2 T00920015
Observed Flight Rules
Oct-18 @ 15:35 UTC (22 minutes ago) Visual Flight Rules
Wind Visibility Clouds
190° at 4 knots 10 miles
  • Clear skies
Temperatures Readings
Current 9°C / 48°F
Dewpoint 2°C / 36°F
Humidity 62%
Altimeter 30.53" Hg
Pressure 1034 hPa
Elevation 248
METAR KPPO 181535Z AUTO 19004KT 10SM CLR 09/02 A3053 RMK AO2 T00920015
Observed Flight Rules
Oct-18 @ 15:35 UTC
(22 minutes ago)
VFR
Wind Visibility
190° at 4 knots 10 miles
Clouds
  • Clear skies
Temperature Dewpoint
9°C / 48°F 2°C / 36°F
Humidity Altimeter Pressure
62% 30.53" Hg 1034 hPa